»·PEaware :: N17VE KLAX-KTOA

N17VE :: KLAX-KTOA

FLIGHT INFORMATION

Flight Status: Arrived
Operator: Privately registered:
United States
More flights under this callsign
Pilot: Turner H. (14068)
Aircraft: CESSNA 172 SKYHAWK
(C172)
More flights by this aircraft type
Origin: KLAX Los Angeles Intl
United States
Destination: KTOA Zamperini
United States
More flights between these airports :: More routes between these airports
Route: +SLI8 SLI
File this flight plan on PilotEdge
Remarks:
Altitude:
(Current/Filed)
3,000ft
Speed:
(Current/Filed)
120kts
Departed: 18-Nov-17 01:46 PM
Arrived: 18-Nov-17 03:19 PM
Distance/Time
Traveled:
9nm/1:32
Distance/Time
To Go:
Arrived

Flight Plot

Page will automatically refresh every two minutes.

Flight plan parsing failed; only flown route is shown


Map Options




Map Legend


Flown Route
Filed Route
Departure Airport
Arrival Airport
Navaid (VOR, NDB)
Fix

Horizontal Profiles

Position Reports

Time Latitude Longitude Heading Altitude Ground
Speed
18-Nov-17 13:21 33.936368 -118.418408 343 115ft 0kts
18-Nov-17 13:22 33.936430 -118.418443 324 115ft 10kts
18-Nov-17 13:23 33.937269 -118.419057 310 114ft 14kts
18-Nov-17 13:24 33.937345 -118.419347 231 113ft 2kts
18-Nov-17 13:25 33.937295 -118.419425 236 113ft 0kts
18-Nov-17 13:26 33.937295 -118.419425 236 113ft 0kts
18-Nov-17 13:34 33.937203 -118.420433 154 111ft 0kts
18-Nov-17 13:35 33.937203 -118.420433 154 111ft 0kts
18-Nov-17 13:36 33.937203 -118.420433 154 111ft 0kts
18-Nov-17 13:37 33.937203 -118.420433 154 111ft 0kts
18-Nov-17 13:38 33.937203 -118.420433 154 111ft 0kts
18-Nov-17 13:39 33.937203 -118.420433 154 111ft 0kts
18-Nov-17 13:40 33.937203 -118.420433 154 111ft 0kts
18-Nov-17 13:41 33.937203 -118.420433 154 111ft 0kts
18-Nov-17 13:42 33.937177 -118.420418 154 111ft 0kts
18-Nov-17 13:43 33.937147 -118.420400 154 111ft 0kts
18-Nov-17 13:44 33.937147 -118.420400 154 111ft 0kts
18-Nov-17 13:45 33.937147 -118.420400 154 111ft 0kts
18-Nov-17 13:46 33.937147 -118.420400 154 111ft 0kts
18-Nov-17 13:47 33.937147 -118.420400 154 111ft 0kts
18-Nov-17 13:48 33.937147 -118.420400 154 111ft 0kts
18-Nov-17 13:49 33.937147 -118.420400 154 111ft 0kts
18-Nov-17 13:50 33.936972 -118.420265 139 112ft 11kts
18-Nov-17 13:51 33.936939 -118.418507 83 115ft 51kts
18-Nov-17 13:52 33.937380 -118.413628 83 136ft 89kts
18-Nov-17 13:53 33.937886 -118.407145 77 167ft 100kts
18-Nov-17 13:54 33.938712 -118.400644 79 138ft 90kts
18-Nov-17 13:55 33.939239 -118.394950 76 121ft 67kts
18-Nov-17 13:56 33.939879 -118.391199 79 101ft 43kts
18-Nov-17 13:57 33.940069 -118.390163 74 99ft 6kts
18-Nov-17 13:58 33.939798 -118.389942 175 99ft 0kts
18-Nov-17 13:59 33.939798 -118.389942 175 99ft 0kts
18-Nov-17 14:00 33.939799 -118.389942 175 99ft 0kts
18-Nov-17 14:01 33.939799 -118.389942 175 99ft 0kts
18-Nov-17 14:02 33.939799 -118.389942 175 99ft 0kts
18-Nov-17 14:03 33.939378 -118.389996 199 99ft 24kts
18-Nov-17 14:04 33.938679 -118.392269 274 102ft 45kts
18-Nov-17 14:16 33.939385 -118.384523 261 107ft 65kts
18-Nov-17 14:17 33.938693 -118.389439 266 260ft 76kts
18-Nov-17 14:18 33.938004 -118.395162 265 479ft 82kts
18-Nov-17 14:19 33.937297 -118.401303 265 644ft 89kts
18-Nov-17 14:20 33.936490 -118.408656 265 819ft 94kts
18-Nov-17 14:21 33.935537 -118.417615 265 1014ft 98kts
18-Nov-17 14:22 33.934431 -118.428256 265 1232ft 101kts
18-Nov-17 14:23 33.933173 -118.440697 266 1606ft 102kts
18-Nov-17 14:24 33.931762 -118.453967 267 1888ft 101kts
18-Nov-17 14:25 33.930186 -118.467814 261 2193ft 103kts
18-Nov-17 14:26 33.919033 -118.475613 175 2553ft 115kts
18-Nov-17 14:27 33.904717 -118.472454 171 2882ft 115kts
18-Nov-17 14:28 33.891540 -118.466977 137 3184ft 115kts
18-Nov-17 14:29 33.881226 -118.457005 139 3486ft 114kts
18-Nov-17 14:30 33.871190 -118.447172 140 3767ft 113kts
18-Nov-17 14:31 33.861478 -118.437661 140 3990ft 121kts
18-Nov-17 14:32 33.851491 -118.427876 140 3961ft 135kts
18-Nov-17 14:33 33.840555 -118.417149 140 3948ft 138kts
18-Nov-17 14:34 33.830130 -118.406905 140 3939ft 132kts
18-Nov-17 14:35 33.820533 -118.397471 140 3940ft 126kts
18-Nov-17 14:36 33.811165 -118.388264 140 3949ft 125kts
18-Nov-17 14:37 33.801667 -118.378933 140 3945ft 124kts
18-Nov-17 14:38 33.792162 -118.369600 140 3965ft 122kts
18-Nov-17 14:39 33.782226 -118.359848 140 3967ft 123kts
18-Nov-17 14:40 33.772572 -118.350367 140 3887ft 121kts
18-Nov-17 14:41 33.762878 -118.340840 140 3658ft 123kts
18-Nov-17 14:42 33.752975 -118.331104 140 3445ft 124kts
18-Nov-17 14:43 33.742837 -118.321135 140 3178ft 125kts
18-Nov-17 14:44 33.733069 -118.311526 140 3021ft 116kts
18-Nov-17 14:45 33.723190 -118.301811 140 3023ft 105kts
18-Nov-17 14:46 33.713748 -118.292543 140 3020ft 96kts
18-Nov-17 14:47 33.703957 -118.282033 133 3032ft 102kts
18-Nov-17 14:48 33.696086 -118.268783 123 3020ft 106kts
18-Nov-17 14:49 33.689545 -118.257308 122 3039ft 111kts
18-Nov-17 14:50 33.680127 -118.240753 122 3028ft 111kts
18-Nov-17 14:51 33.672180 -118.226776 122 3031ft 111kts
18-Nov-17 14:52 33.665587 -118.215175 122 3028ft 111kts
18-Nov-17 14:53 33.657190 -118.198678 98 3007ft 111kts
18-Nov-17 14:54 33.661502 -118.186247 27 2759ft 100kts
18-Nov-17 14:55 33.671289 -118.186562 335 2582ft 96kts
18-Nov-17 14:56 33.679275 -118.190265 338 2310ft 102kts
18-Nov-17 14:57 33.689314 -118.194198 340 2020ft 100kts
18-Nov-17 14:58 33.698195 -118.197393 341 2057ft 84kts
18-Nov-17 14:59 33.705950 -118.199413 359 2020ft 78kts
18-Nov-17 15:00 33.712829 -118.201147 336 2017ft 67kts
18-Nov-17 15:01 33.717466 -118.205846 293 2033ft 61kts
18-Nov-17 15:02 33.720143 -118.213308 300 2106ft 75kts
18-Nov-17 15:03 33.723658 -118.221319 300 2106ft 86kts
18-Nov-17 15:04 33.728370 -118.228685 326 2101ft 91kts
18-Nov-17 15:05 33.734196 -118.235176 315 2096ft 94kts
18-Nov-17 15:06 33.739555 -118.242320 311 2094ft 95kts
18-Nov-17 15:07 33.744605 -118.249560 311 2096ft 96kts
18-Nov-17 15:08 33.749213 -118.256209 312 2028ft 92kts
18-Nov-17 15:09 33.754378 -118.262510 320 1775ft 96kts
18-Nov-17 15:10 33.758756 -118.269441 298 1722ft 88kts
18-Nov-17 15:11 33.762487 -118.276392 300 1570ft 90kts
18-Nov-17 15:12 33.766448 -118.283085 307 1356ft 94kts
18-Nov-17 15:13 33.770568 -118.289338 307 1182ft 83kts
18-Nov-17 15:14 33.774118 -118.294607 312 1068ft 65kts
18-Nov-17 15:15 33.776998 -118.299055 311 980ft 62kts
18-Nov-17 15:16 33.779738 -118.303192 311 858ft 57kts
18-Nov-17 15:17 33.782236 -118.306973 311 700ft 58kts
18-Nov-17 15:18 33.784703 -118.310688 311 644ft 54kts
18-Nov-17 15:19 33.787253 -118.314514 311 603ft 55kts
18-Nov-17 15:20 33.789865 -118.318424 311 543ft 58kts
18-Nov-17 15:21 33.792760 -118.322746 311 438ft 67kts
18-Nov-17 15:22 33.795841 -118.327456 308 360ft 57kts
18-Nov-17 15:23 33.798792 -118.331795 313 198ft 58kts
18-Nov-17 15:24 33.801196 -118.335296 313 98ft 34kts
18-Nov-17 15:25 33.802614 -118.337439 309 97ft 26kts
18-Nov-17 15:26 33.803998 -118.339408 309 96ft 27kts
18-Nov-17 15:27 33.805248 -118.341609 291 95ft 28kts

Navigation Log

Ident Type
Flight plan parsing failed, navigation log unavailable